Yur'yev-Pol'skiy, Russia
Current Conditions -  °F | °C
As of 4:30 AM on Thursday 27 Nov 2014 (Local Time) from UUEE Reporting Station
Haze Haze  
Wind Chill: 13°   Ceiling: 300
Heat Index: 19°   Visibility: 2.6mi
Dew Point: 18°   Wind: 4mph
Humidity: 93%   Direction: NA
Pressure: 30.45"   Gusts: NA
Location:  56.3°N, 39.41°E
Report Text: UUEE 270130Z VRB02MPS 4200 BR OVC003 M07/M08 Q1031 7549024525490245 NOSIG
Loading
Personal Weather Stations






























Interactive Weather Map New forecast layout! Learn more

10-Day Weather Forecast

Advertisements
Track Severe Weather on mobile